1895 Tropical Storm NOT_NAMED (1895268N12278)


IBTrACS version v04r00. Visit IBTrACS website for data access.
Please direct all questions to the IBTrACS Q and A forum

Storm track - Intensity - Wind Radii - Intensity Data - Source Data - All data

Summary Information

Storm ID 1895268N12278
Start Sep 25 00Z
Landfall Sep 25 12Z, Sep 27 18Z, Sep 30 15Z, Oct 2 09Z, Oct 7 12Z
Max Intensity 55 kt (Sep 26 00Z), 982 mb (Oct 6 12Z)
End Oct 7 12Z
ATCF IDs
Track status Best track data.

Storm track plot

Map of storm track

Intensity plots

Map of storm track

Radial wind information

No radial wind information for this storm


Position and Intensity Table

BASIN ISO_TIME_________ NATURE LAT LON MLC WIND MLC PRES
degrees north degrees east kts mb
NA 1895-09-25 00:00:00 TS 12.00 -82.50 30
NA 03:00:00 TS 12.30 -82.75 32
NA 06:00:00 TS 12.60 -83.00 35
NA 09:00:00 TS 12.90 -83.25 37
NA 12:00:00 TS 13.20 -83.50 40
NA 15:00:00 TS 13.50 -83.75 42
NA 18:00:00 TS 13.80 -84.00 45
NA 21:00:00 TS 14.10 -84.25 50
NA 1895-09-26 00:00:00 TS 14.40 -84.50 55
NA 03:00:00 TS 14.71 -84.75 42
NA 06:00:00 TS 15.00 -85.00 30
NA 09:00:00 TS 15.26 -85.24 30
NA 12:00:00 TS 15.50 -85.50 30
NA 15:00:00 TS 15.75 -85.80 32
NA 18:00:00 TS 16.00 -86.10 35
NA 21:00:00 TS 16.25 -86.35 40
NA 1895-09-27 00:00:00 TS 16.50 -86.60 45
NA 03:00:00 TS 16.75 -86.90 50
NA 06:00:00 TS 17.00 -87.20 55
NA 09:00:00 TS 17.22 -87.48 55
NA 12:00:00 TS 17.50 -87.70 55
NA 15:00:00 TS 17.92 -87.83 55
NA 18:00:00 TS 18.40 -87.90 55
NA 21:00:00 TS 18.85 -87.95 52
NA 1895-09-28 00:00:00 TS 19.30 -88.00 50
NA 03:00:00 TS 19.76 -88.10 47
NA 06:00:00 TS 20.20 -88.20 45
NA 09:00:00 TS 20.63 -88.26 42
NA 12:00:00 TS 21.00 -88.30 40
NA 15:00:00 TS 21.27 -88.36 37
NA 18:00:00 TS 21.50 -88.40 35
NA 21:00:00 TS 21.75 -88.41 32
NA 1895-09-29 00:00:00 TS 22.00 -88.40 30
NA 03:00:00 TS 22.25 -88.41 30
NA 06:00:00 TS 22.50 -88.40 30
NA 09:00:00 TS 22.79 -88.40 30
NA 12:00:00 TS 23.00 -88.30 30
NA 15:00:00 TS 23.00 -88.03 32
NA 18:00:00 TS 22.90 -87.70 35
NA 21:00:00 TS 22.87 -87.49 37
NA 1895-09-30 00:00:00 TS 22.80 -87.20 40
NA 03:00:00 TS 22.62 -86.69 42
NA 06:00:00 TS 22.40 -86.10 45
NA 09:00:00 TS 22.19 -85.48 47
NA 12:00:00 TS 22.00 -85.00 50
NA 15:00:00 TS 21.88 -84.83 52
NA 18:00:00 TS 21.80 -84.80 55
NA 21:00:00 TS 21.74 -84.70 55
NA 1895-10-01 00:00:00 TS 21.70 -84.60 55
NA 03:00:00 TS 21.65 -84.49 55
NA 06:00:00 TS 21.60 -84.40 55
NA 09:00:00 TS 21.53 -84.36 55
NA 12:00:00 TS 21.50 -84.30 55
NA 15:00:00 TS 21.57 -84.16 55
NA 18:00:00 TS 21.70 -83.90 55
NA 21:00:00 TS 21.83 -83.51 52
NA 1895-10-02 00:00:00 TS 22.00 -83.00 50
NA 03:00:00 TS 22.23 -82.43 50
NA 06:00:00 TS 22.50 -81.80 50
NA 09:00:00 TS 22.71 -81.16 50
NA 12:00:00 TS 23.00 -80.50 50
NA 15:00:00 TS 23.46 -79.81 50
NA 18:00:00 TS 24.00 -79.10 50
NA 21:00:00 TS 24.50 -78.40 50
NA 1895-10-03 00:00:00 TS 25.00 -77.70 50
NA 03:00:00 TS 25.54 -76.99 50
NA 06:00:00 TS 26.00 -76.30 50
NA 09:00:00 TS 26.28 -75.62 50
NA 12:00:00 TS 26.50 -75.00 50
NA 15:00:00 TS 26.79 -74.48 50
NA 18:00:00 TS 27.10 -74.00 50
NA 21:00:00 TS 27.40 -73.50 50
NA 1895-10-04 00:00:00 TS 27.70 -73.00 50
NA 03:00:00 TS 28.01 -72.50 50
NA 06:00:00 TS 28.30 -72.00 50
NA 09:00:00 TS 28.55 -71.50 50
NA 12:00:00 TS 28.80 -71.00 50
NA 15:00:00 TS 29.10 -70.50 50
NA 18:00:00 TS 29.40 -70.00 50
NA 21:00:00 TS 29.65 -69.50 47
NA 1895-10-05 00:00:00 TS 29.90 -69.00 45
NA 03:00:00 TS 30.20 -68.50 45
NA 06:00:00 TS 30.50 -68.00 45
NA 09:00:00 TS 30.69 -67.48 45
NA 12:00:00 TS 31.00 -67.00 45
NA 15:00:00 TS 31.64 -66.63 45
NA 18:00:00 TS 32.40 -66.30 45
NA 21:00:00 TS 33.06 -65.95 45
NA 1895-10-06 00:00:00 TS 33.70 -65.60 45
NA 03:00:00 TS 34.35 -65.25 45
NA 06:00:00 TS 35.00 -64.90 45
NA 09:00:00 TS 35.63 -64.65 45
NA 12:00:00 TS 36.30 -64.20 45 982
NA 15:00:00 TS 36.95 -63.25 45
NA 18:00:00 ET 37.80 -62.10 45
NA 21:00:00 ET 39.04 -61.04 42
NA 1895-10-07 00:00:00 ET 40.50 -60.00 40
NA 03:00:00 ET 41.94 -58.99 40
NA 06:00:00 ET 43.50 -58.00 40
NA 09:00:00 ET 45.21 -57.02 40
NA 12:00:00 ET 47.00 -56.00 40

Source Information

Agency Information
USA
TOKYO
CMA
HKO
NEWDELHI
REUNION
BOM
NADI
WELLINGTON
DS824
TD9636
TD9635
NEUMANN
MLC

All available IBTrACS Data

SEASON BASIN SUBBASIN ISO_TIME_________ NATURE LAT LON DIST2LAND LANDFALL IFLAG USA SSHS MLC LAT MLC LON MLC CLASS MLC WIND MLC PRES STORM SPEED STORM DIR
Year degrees north degrees east km km 1 degrees north degrees east kts mb kts degrees
1895 NA CS 1895-09-25 00:00:00 TS 12.00 -82.50 117 87 _____________O -1 12.00 -82.50 TD 30 8 321
1895 NA CS 03:00:00 TS 12.30 -82.75 87 54 _____________P -1 12.30 -82.75 TD 32 8 321
1895 NA CS 06:00:00 TS 12.60 -83.00 54 32 _____________O -1 12.60 -83.00 TS 35 8 321
1895 NA CS 09:00:00 TS 12.90 -83.25 21 0 _____________P -1 12.90 -83.25 TS 37 8 321
1895 NA CS 12:00:00 TS 13.20 -83.50 0 0 _____________O -1 13.20 -83.50 TS 40 8 321
1895 NA NA 15:00:00 TS 13.50 -83.75 0 0 _____________P -1 13.50 -83.75 TS 42 8 321
1895 NA NA 18:00:00 TS 13.80 -84.00 0 0 _____________O -1 13.80 -84.00 TS 45 8 321
1895 NA NA 21:00:00 TS 14.10 -84.25 0 0 _____________P -1 14.10 -84.25 TS 50 8 321
1895 NA NA 1895-09-26 00:00:00 TS 14.40 -84.50 0 0 _____________O -1 14.40 -84.50 TS 55 8 321
1895 NA NA 03:00:00 TS 14.71 -84.75 0 0 _____________P -1 14.71 -84.75 TS 42 8 321
1895 NA NA 06:00:00 TS 15.00 -85.00 0 0 _____________O -1 15.00 -85.00 TD 30 7 319
1895 NA NA 09:00:00 TS 15.26 -85.24 0 0 _____________P -1 15.26 -85.24 TD 30 7 316
1895 NA NA 12:00:00 TS 15.50 -85.50 0 0 _____________O -1 15.50 -85.50 TD 30 7 313
1895 NA NA 15:00:00 TS 15.75 -85.80 0 0 _____________P -1 15.75 -85.80 TD 32 8 311
1895 NA CS 18:00:00 TS 16.00 -86.10 22 22 _____________O -1 16.00 -86.10 TS 35 7 313
1895 NA CS 21:00:00 TS 16.25 -86.35 44 44 _____________P -1 16.25 -86.35 TS 40 7 316
1895 NA CS 1895-09-27 00:00:00 TS 16.50 -86.60 81 81 _____________O -1 16.50 -86.60 TS 45 7 313
1895 NA CS 03:00:00 TS 16.75 -86.90 111 106 _____________P -1 16.75 -86.90 TS 50 8 311
1895 NA CS 06:00:00 TS 17.00 -87.20 106 77 _____________O -1 17.00 -87.20 TS 55 7 310
1895 NA CS 09:00:00 TS 17.22 -87.48 77 53 _____________P -1 17.22 -87.48 TS 55 7 316
1895 NA CS 12:00:00 TS 17.50 -87.70 53 33 _____________O -1 17.50 -87.70 TS 55 8 335
1895 NA CS 15:00:00 TS 17.92 -87.83 33 0 _____________P -1 17.92 -87.83 TS 55 9 348
1895 NA CS 18:00:00 TS 18.40 -87.90 0 0 _____________O -1 18.40 -87.90 TS 55 9 353
1895 NA NA 21:00:00 TS 18.85 -87.95 0 0 _____________P -1 18.85 -87.95 TS 52 9 354
1895 NA NA 1895-09-28 00:00:00 TS 19.30 -88.00 0 0 _____________O -1 19.30 -88.00 TS 50 9 351
1895 NA NA 03:00:00 TS 19.76 -88.10 0 0 _____________P -1 19.76 -88.10 TS 47 9 348
1895 NA NA 06:00:00 TS 20.20 -88.20 0 0 _____________O -1 20.20 -88.20 TS 45 9 350
1895 NA NA 09:00:00 TS 20.63 -88.26 0 0 _____________P -1 20.63 -88.26 TS 42 8 353
1895 NA NA 12:00:00 TS 21.00 -88.30 0 0 _____________O -1 21.00 -88.30 TS 40 7 351
1895 NA NA 15:00:00 TS 21.27 -88.36 0 0 _____________P -1 21.27 -88.36 TS 37 5 349
1895 NA NA 18:00:00 TS 21.50 -88.40 0 0 _____________O -1 21.50 -88.40 TS 35 5 355
1895 NA GM 21:00:00 TS 21.75 -88.41 33 22 _____________P -1 21.75 -88.41 TS 32 5 2
1895 NA GM 1895-09-29 00:00:00 TS 22.00 -88.40 55 55 _____________O -1 22.00 -88.40 TD 30 5 2
1895 NA GM 03:00:00 TS 22.25 -88.41 89 78 _____________P -1 22.25 -88.41 TD 30 5 2
1895 NA GM 06:00:00 TS 22.50 -88.40 111 111 _____________O -1 22.50 -88.40 TD 30 5 2
1895 NA GM 09:00:00 TS 22.79 -88.40 145 145 _____________P -1 22.79 -88.40 TD 30 5 10
1895 NA GM 12:00:00 TS 23.00 -88.30 167 167 _____________O -1 23.00 -88.30 TD 30 4 59
1895 NA GM 15:00:00 TS 23.00 -88.03 167 156 _____________P -1 23.00 -88.03 TD 32 6 100
1895 NA GM 18:00:00 TS 22.90 -87.70 156 156 _____________O -1 22.90 -87.70 TS 35 5 104
1895 NA GM 21:00:00 TS 22.87 -87.49 157 145 _____________P -1 22.87 -87.49 TS 37 5 102
1895 NA GM 1895-09-30 00:00:00 TS 22.80 -87.20 145 124 _____________O -1 22.80 -87.20 TS 40 8 109
1895 NA GM 03:00:00 TS 22.62 -86.69 126 123 _____________P -1 22.62 -86.69 TS 42 11 111
1895 NA GM 06:00:00 TS 22.40 -86.10 126 61 _____________O -1 22.40 -86.10 TS 45 12 111
1895 NA GM 09:00:00 TS 22.19 -85.48 61 11 _____________P -1 22.19 -85.48 TS 47 11 111
1895 NA GM 12:00:00 TS 22.00 -85.00 11 0 _____________O -1 22.00 -85.00 TS 50 7 117
1895 NA NA 15:00:00 TS 21.88 -84.83 0 0 _____________P -1 21.88 -84.83 TS 52 3 137
1895 NA CS 18:00:00 TS 21.80 -84.80 0 0 _____________O -1 21.80 -84.80 TS 55 2 137
1895 NA CS 21:00:00 TS 21.74 -84.70 15 15 _____________P -1 21.74 -84.70 TS 55 2 119
1895 NA CS 1895-10-01 00:00:00 TS 21.70 -84.60 15 11 _____________O -1 21.70 -84.60 TS 55 2 116
1895 NA CS 03:00:00 TS 21.65 -84.49 11 11 _____________P -1 21.65 -84.49 TS 55 2 119
1895 NA CS 06:00:00 TS 21.60 -84.40 24 24 _____________O -1 21.60 -84.40 TS 55 2 135
1895 NA CS 09:00:00 TS 21.53 -84.36 35 35 _____________P -1 21.53 -84.36 TS 55 1 137
1895 NA CS 12:00:00 TS 21.50 -84.30 39 33 _____________O -1 21.50 -84.30 TS 55 2 77
1895 NA CS 15:00:00 TS 21.57 -84.16 33 22 _____________P -1 21.57 -84.16 TS 55 4 62
1895 NA CS 18:00:00 TS 21.70 -83.90 24 24 _____________O -1 21.70 -83.90 TS 55 7 67
1895 NA CS 21:00:00 TS 21.83 -83.51 41 15 _____________P -1 21.83 -83.51 TS 52 9 70
1895 NA CS 1895-10-02 00:00:00 TS 22.00 -83.00 22 22 _____________O -1 22.00 -83.00 TS 50 11 68
1895 NA CS 03:00:00 TS 22.23 -82.43 30 0 _____________P -1 22.23 -82.43 TS 50 12 66
1895 NA CS 06:00:00 TS 22.50 -81.80 11 0 _____________O -1 22.50 -81.80 TS 50 13 68
1895 NA NA 09:00:00 TS 22.71 -81.16 0 0 _____________P -1 22.71 -81.16 TS 50 13 67
1895 NA NA 12:00:00 TS 23.00 -80.50 0 0 _____________O -1 23.00 -80.50 TS 50 15 59
1895 NA NA 15:00:00 TS 23.46 -79.81 70 70 _____________P -1 23.46 -79.81 TS 50 16 52
1895 NA NA 18:00:00 TS 24.00 -79.10 90 10 _____________O -1 24.00 -79.10 TS 50 17 51
1895 NA NA 21:00:00 TS 24.50 -78.40 10 0 _____________P -1 24.50 -78.40 TS 50 16 52
1895 NA NA 1895-10-03 00:00:00 TS 25.00 -77.70 23 23 _____________O -1 25.00 -77.70 TS 50 16 51
1895 NA NA 03:00:00 TS 25.54 -76.99 109 109 _____________P -1 25.54 -76.99 TS 50 16 52
1895 NA NA 06:00:00 TS 26.00 -76.30 197 197 _____________O -1 26.00 -76.30 TS 50 14 59
1895 NA NA 09:00:00 TS 26.28 -75.62 275 275 _____________P -1 26.28 -75.62 TS 50 13 67
1895 NA NA 12:00:00 TS 26.50 -75.00 338 338 _____________O -1 26.50 -75.00 TS 50 11 63
1895 NA NA 15:00:00 TS 26.79 -74.48 397 397 _____________P -1 26.79 -74.48 TS 50 11 56
1895 NA NA 18:00:00 TS 27.10 -74.00 457 457 _____________O -1 27.10 -74.00 TS 50 11 55
1895 NA NA 21:00:00 TS 27.40 -73.50 516 516 _____________P -1 27.40 -73.50 TS 50 11 56
1895 NA NA 1895-10-04 00:00:00 TS 27.70 -73.00 576 576 _____________O -1 27.70 -73.00 TS 50 11 56
1895 NA NA 03:00:00 TS 28.01 -72.50 635 635 _____________P -1 28.01 -72.50 TS 50 11 56
1895 NA NA 06:00:00 TS 28.30 -72.00 694 694 _____________O -1 28.30 -72.00 TS 50 10 58
1895 NA NA 09:00:00 TS 28.55 -71.50 747 747 _____________P -1 28.55 -71.50 TS 50 10 60
1895 NA NA 12:00:00 TS 28.80 -71.00 806 806 _____________O -1 28.80 -71.00 TS 50 10 58
1895 NA NA 15:00:00 TS 29.10 -70.50 842 840 _____________P -1 29.10 -70.50 TS 50 11 56
1895 NA NA 18:00:00 TS 29.40 -70.00 850 849 _____________O -1 29.40 -70.00 TS 50 10 58
1895 NA NA 21:00:00 TS 29.65 -69.50 869 861 _____________P -1 29.65 -69.50 TS 47 10 60
1895 NA NA 1895-10-05 00:00:00 TS 29.90 -69.00 882 882 _____________O -1 29.90 -69.00 TS 45 10 58
1895 NA NA 03:00:00 TS 30.20 -68.50 897 897 _____________P -1 30.20 -68.50 TS 45 11 55
1895 NA NA 06:00:00 TS 30.50 -68.00 913 912 _____________O -1 30.50 -68.00 TS 45 10 61
1895 NA NA 09:00:00 TS 30.69 -67.48 934 934 _____________P -1 30.69 -67.48 TS 45 10 60
1895 NA NA 12:00:00 TS 31.00 -67.00 951 937 _____________O -1 31.00 -67.00 TS 45 12 37
1895 NA NA 15:00:00 TS 31.64 -66.63 945 922 _____________P -1 31.64 -66.63 TS 45 15 23
1895 NA NA 18:00:00 TS 32.40 -66.30 925 919 _____________O -1 32.40 -66.30 TS 45 15 22
1895 NA NA 21:00:00 TS 33.06 -65.95 928 923 _____________P -1 33.06 -65.95 TS 45 14 24
1895 NA NA 1895-10-06 00:00:00 TS 33.70 -65.60 931 920 _____________O -1 33.70 -65.60 TS 45 14 24
1895 NA NA 03:00:00 TS 34.35 -65.25 924 867 _____________P -1 34.35 -65.25 TS 45 14 24
1895 NA NA 06:00:00 TS 35.00 -64.90 867 819 _____________O -1 35.00 -64.90 TS 45 14 21
1895 NA NA 09:00:00 TS 35.63 -64.65 819 781 _____________P -1 35.63 -64.65 TS 45 14 24
1895 NA NA 12:00:00 TS 36.30 -64.20 781 751 _____________O -1 36.30 -64.20 TS 45 982 17 41
1895 NA NA 15:00:00 TS 36.95 -63.25 753 695 _____________P -1 36.95 -63.25 TS 45 23 48
1895 NA NA 18:00:00 ET 37.80 -62.10 688 610 _____________O -1 37.80 -62.10 EX 45 27 40
1895 NA NA 21:00:00 ET 39.04 -61.04 615 526 _____________P -1 39.04 -61.04 EX 42 32 31
1895 NA NA 1895-10-07 00:00:00 ET 40.50 -60.00 519 403 _____________O -1 40.50 -60.00 EX 40 33 28
1895 NA NA 03:00:00 ET 41.94 -58.99 403 304 _____________P -1 41.94 -58.99 EX 40 33 26
1895 NA NA 06:00:00 ET 43.50 -58.00 300 217 _____________O -1 43.50 -58.00 EX 40 36 24
1895 NA NA 09:00:00 ET 45.21 -57.02 203 13 _____________P -1 45.21 -57.02 EX 40 38 22
1895 NA NA 12:00:00 ET 47.00 -56.00 0 _____________O -1 47.00 -56.00 EX 40 38 21